createdAt,value
2023-12-23T00:00:25.713Z,4.37
2023-12-23T00:03:35.066Z,4.33
2023-12-23T00:06:42.011Z,4.26
2023-12-23T00:09:49.657Z,4.25
2023-12-23T00:12:58.519Z,4.21
2023-12-23T00:16:05.967Z,4.16
2023-12-23T00:19:13.090Z,4.08
2023-12-23T00:22:22.228Z,4.10
2023-12-23T00:25:29.218Z,4.08
2023-12-23T00:28:39.089Z,4.00
2023-12-23T00:31:47.926Z,3.94
2023-12-23T00:34:54.961Z,3.90
2023-12-23T00:38:05.444Z,3.89
2023-12-23T00:41:14.927Z,3.80
2023-12-23T00:44:21.864Z,3.80
2023-12-23T00:47:34.202Z,3.82
2023-12-23T00:50:32.199Z,3.80
2023-12-23T00:53:40.678Z,3.80
2023-12-23T00:56:48.324Z,3.79
2023-12-23T00:59:55.923Z,3.80
2023-12-23T01:03:04.021Z,3.80
2023-12-23T01:06:11.620Z,3.80
2023-12-23T01:09:18.992Z,3.79
2023-12-23T01:12:29.101Z,3.76
2023-12-23T01:15:36.324Z,3.78
2023-12-23T01:18:43.351Z,3.82
2023-12-23T01:21:51.840Z,3.78
2023-12-23T01:24:59.472Z,3.76
2023-12-23T01:28:07.233Z,3.78
2023-12-23T01:31:14.917Z,3.83
2023-12-23T01:34:24.074Z,3.83
2023-12-23T01:37:31.913Z,3.80
2023-12-23T01:40:39.092Z,3.79
2023-12-23T01:43:48.269Z,3.76
2023-12-23T01:46:54.964Z,3.72
2023-12-23T01:50:02.100Z,3.70
2023-12-23T01:53:11.352Z,3.67
2023-12-23T01:56:18.456Z,3.64
2023-12-23T01:59:26.448Z,3.62
2023-12-23T02:02:35.450Z,3.60
2023-12-23T02:05:42.739Z,3.61
2023-12-23T02:08:50.517Z,3.64
2023-12-23T02:11:58.206Z,3.62
2023-12-23T02:15:06.922Z,3.60
2023-12-23T02:18:14.504Z,3.54
2023-12-23T02:21:22.395Z,3.52
2023-12-23T02:24:30.873Z,3.52
2023-12-23T02:27:38.673Z,3.53
2023-12-23T02:30:46.194Z,3.53
2023-12-23T02:33:54.563Z,3.50
2023-12-23T02:37:01.703Z,3.52
2023-12-23T02:40:09.787Z,3.52
2023-12-23T02:43:18.230Z,3.53
2023-12-23T02:46:25.326Z,3.52
2023-12-23T02:49:33.293Z,3.50
2023-12-23T02:52:40.632Z,3.53
2023-12-23T02:55:49.156Z,3.53
2023-12-23T02:58:56.077Z,3.54
2023-12-23T03:02:03.587Z,3.58
2023-12-23T03:05:12.565Z,3.61
2023-12-23T03:08:19.688Z,3.64
2023-12-23T03:11:26.253Z,3.71
2023-12-23T03:14:34.865Z,3.79
2023-12-23T03:17:41.547Z,3.82
2023-12-23T03:18:57.867Z,3.83
2023-12-23T03:22:06.890Z,3.85
2023-12-23T03:25:15.821Z,3.89
2023-12-23T03:28:23.391Z,3.96
2023-12-23T03:31:31.518Z,3.96
2023-12-23T03:34:40.257Z,4.00
2023-12-23T03:37:47.772Z,4.03
2023-12-23T03:40:55.995Z,4.10
2023-12-23T03:44:04.965Z,4.14
2023-12-23T03:47:12.358Z,4.15
2023-12-23T03:50:23.143Z,4.25
2023-12-23T03:53:30.396Z,4.29
2023-12-23T03:56:39.219Z,4.32
2023-12-23T03:59:46.757Z,4.37
2023-12-23T04:02:54.168Z,4.40
2023-12-23T04:06:02.739Z,4.37
2023-12-23T04:09:09.748Z,4.37
2023-12-23T04:12:17.384Z,4.33
2023-12-23T04:15:25.601Z,4.32
2023-12-23T04:18:32.933Z,4.26
2023-12-23T04:21:40.173Z,4.21
2023-12-23T04:24:49.609Z,4.18
2023-12-23T04:27:56.628Z,4.12
2023-12-23T04:31:03.830Z,4.04
2023-12-23T04:34:13.721Z,3.96
2023-12-23T04:37:20.346Z,3.85
2023-12-23T04:40:28.034Z,3.79
2023-12-23T04:43:35.436Z,3.71
2023-12-23T04:46:44.353Z,3.67
2023-12-23T04:49:53.919Z,3.64
2023-12-23T04:53:01.510Z,3.60
2023-12-23T04:56:10.374Z,3.54
2023-12-23T04:59:17.350Z,3.53
2023-12-23T05:02:24.295Z,3.52
2023-12-23T05:05:32.876Z,3.50
2023-12-23T05:08:40.439Z,3.49
2023-12-23T05:11:47.896Z,3.50
2023-12-23T05:14:56.150Z,3.49
2023-12-23T05:18:03.993Z,3.47
2023-12-23T05:21:11.106Z,3.49
2023-12-23T05:24:18.606Z,3.46
2023-12-23T05:27:28.421Z,3.49
2023-12-23T05:30:36.607Z,3.53
2023-12-23T05:32:57.734Z,3.58
2023-12-23T05:36:06.893Z,3.58
2023-12-23T05:39:13.931Z,3.60
2023-12-23T05:42:21.719Z,3.60
2023-12-23T05:45:30.641Z,3.54
2023-12-23T05:48:38.355Z,3.44
2023-12-23T05:51:45.281Z,3.28
2023-12-23T05:54:52.509Z,3.24
2023-12-23T05:58:01.212Z,3.24
2023-12-23T06:01:09.026Z,3.25
2023-12-23T06:04:16.356Z,3.24
2023-12-23T06:07:25.753Z,3.20
2023-12-23T06:10:43.290Z,3.15
2023-12-23T06:13:38.166Z,3.09
2023-12-23T06:16:47.488Z,3.03
2023-12-23T06:19:54.153Z,3.02
2023-12-23T06:23:02.555Z,3.02
2023-12-23T06:26:10.829Z,2.98
2023-12-23T06:26:57.063Z,2.97
2023-12-23T06:30:04.502Z,2.98
2023-12-23T06:33:12.473Z,3.00
2023-12-23T06:36:20.810Z,3.03
2023-12-23T06:39:27.912Z,3.10
2023-12-23T06:42:35.786Z,3.18
2023-12-23T06:45:43.883Z,3.21
2023-12-23T06:48:52.961Z,3.28
2023-12-23T06:51:59.873Z,3.39
2023-12-23T06:55:07.245Z,3.44
2023-12-23T06:58:16.242Z,3.50
2023-12-23T07:01:23.684Z,3.57
2023-12-23T07:04:31.173Z,3.62
2023-12-23T07:07:40.465Z,3.65
2023-12-23T07:10:48.783Z,3.68
2023-12-23T07:13:55.865Z,3.75
2023-12-23T07:17:05.194Z,3.76
2023-12-23T07:20:13.321Z,3.79
2023-12-23T07:23:20.611Z,3.75
2023-12-23T07:26:29.751Z,3.76
2023-12-23T07:29:37.361Z,3.72
2023-12-23T07:32:44.261Z,3.67
2023-12-23T07:35:54.212Z,3.57
2023-12-23T07:39:02.564Z,3.49
2023-12-23T07:42:10.427Z,3.46
2023-12-23T07:45:17.567Z,3.44
2023-12-23T07:48:27.494Z,3.44
2023-12-23T07:51:34.765Z,3.42
2023-12-23T07:54:42.534Z,3.36
2023-12-23T07:57:51.951Z,3.30
2023-12-23T08:00:59.679Z,3.25
2023-12-23T08:04:06.972Z,3.24
2023-12-23T08:07:15.855Z,3.18
2023-12-23T08:10:24.827Z,3.20
2023-12-23T08:13:32.517Z,3.18
2023-12-23T08:16:39.548Z,3.18
2023-12-23T08:19:50.890Z,3.20
2023-12-23T08:22:58.106Z,3.18
2023-12-23T08:26:06.074Z,3.20
2023-12-23T08:29:14.981Z,3.23
2023-12-23T08:32:22.676Z,3.21
2023-12-23T08:35:30.235Z,3.23
2023-12-23T08:38:40.699Z,3.21
2023-12-23T08:41:49.149Z,3.24
2023-12-23T08:44:57.159Z,3.27
2023-12-23T08:48:06.593Z,3.27
2023-12-23T08:51:15.023Z,3.25
2023-12-23T08:54:22.344Z,3.23
2023-12-23T08:57:30.641Z,3.24
2023-12-23T09:00:38.935Z,3.25
2023-12-23T09:03:46.583Z,3.28
2023-12-23T09:06:54.258Z,3.31
2023-12-23T09:10:02.633Z,3.34
2023-12-23T09:13:10.145Z,3.34
2023-12-23T09:16:18.479Z,3.39
2023-12-23T09:19:27.112Z,3.39
2023-12-23T09:22:34.818Z,3.36
2023-12-23T09:25:41.957Z,3.34
2023-12-23T09:28:50.469Z,3.30
2023-12-23T09:31:57.728Z,3.28
2023-12-23T09:35:06.572Z,3.28
2023-12-23T09:38:15.510Z,3.28
2023-12-23T09:41:23.268Z,3.27
2023-12-23T09:44:31.074Z,3.24
2023-12-23T09:47:38.791Z,3.18
2023-12-23T09:50:47.906Z,3.16
2023-12-23T09:53:55.297Z,3.12
2023-12-23T09:57:02.699Z,3.00
2023-12-23T10:00:11.695Z,2.91
2023-12-23T10:03:19.329Z,2.87
2023-12-23T10:06:26.357Z,2.70
2023-12-23T10:09:35.132Z,2.58
2023-12-23T10:12:42.497Z,2.45
2023-12-23T10:15:50.044Z,2.41
2023-12-23T10:18:59.505Z,2.37
2023-12-23T10:22:06.769Z,2.17
2023-12-23T10:25:14.021Z,2.12
2023-12-23T10:28:21.319Z,2.06
2023-12-23T10:31:29.776Z,1.97
2023-12-23T10:34:36.513Z,1.94
2023-12-23T10:37:44.522Z,1.91
2023-12-23T10:40:52.992Z,1.89
2023-12-23T10:44:00.520Z,1.94
2023-12-23T10:47:07.817Z,1.99
2023-12-23T10:50:16.748Z,2.01
2023-12-23T10:53:24.366Z,1.91
2023-12-23T10:56:33.236Z,1.89
2023-12-23T10:59:42.172Z,1.90
2023-12-23T11:02:49.732Z,1.94
2023-12-23T11:05:57.948Z,1.91
2023-12-23T11:09:04.712Z,1.89
2023-12-23T11:12:13.708Z,1.91
2023-12-23T11:15:21.142Z,1.93
2023-12-23T11:18:28.836Z,1.93
2023-12-23T11:21:37.772Z,1.97
2023-12-23T11:24:46.330Z,1.93
2023-12-23T11:27:53.529Z,2.04
2023-12-23T11:31:02.279Z,2.06
2023-12-23T11:34:10.156Z,2.12
2023-12-23T11:37:17.681Z,2.15
2023-12-23T11:40:27.121Z,2.16
2023-12-23T11:43:34.385Z,2.22
2023-12-23T11:46:41.698Z,2.26
2023-12-23T11:49:49.390Z,2.26
2023-12-23T11:52:58.987Z,2.31
2023-12-23T11:56:05.990Z,2.31
2023-12-23T11:59:13.361Z,2.35
2023-12-23T12:02:22.418Z,2.40
2023-12-23T12:05:29.716Z,2.46
2023-12-23T12:08:37.530Z,2.55
2023-12-23T12:11:46.122Z,2.55
2023-12-23T12:14:53.684Z,2.59
2023-12-23T12:18:01.704Z,2.64
2023-12-23T12:21:10.145Z,2.67
2023-12-23T12:24:17.322Z,2.74
2023-12-23T12:27:24.240Z,2.77
2023-12-23T12:30:32.766Z,2.82
2023-12-23T12:33:40.133Z,2.85
2023-12-23T12:36:47.811Z,2.89
2023-12-23T12:39:54.773Z,2.95
2023-12-23T12:43:03.216Z,2.98
2023-12-23T12:46:11.289Z,3.05
2023-12-23T12:49:18.610Z,3.09
2023-12-23T12:52:27.606Z,3.15
2023-12-23T12:55:34.961Z,3.21
2023-12-23T13:01:51.409Z,3.31
2023-12-23T13:04:59.570Z,3.36
2023-12-23T13:08:06.530Z,3.46
2023-12-23T13:11:15.191Z,3.47
2023-12-23T13:14:22.585Z,3.53
2023-12-23T13:17:30.398Z,3.58
2023-12-23T13:20:38.255Z,3.62
2023-12-23T13:23:47.792Z,3.67
2023-12-23T13:26:54.620Z,3.68
2023-12-23T13:30:02.258Z,3.72
2023-12-23T13:33:10.917Z,3.79
2023-12-23T13:36:18.300Z,3.82
2023-12-23T13:39:25.630Z,3.82
2023-12-23T13:42:34.861Z,3.83
2023-12-23T13:45:41.988Z,3.86
2023-12-23T13:48:49.816Z,3.85
2023-12-23T13:51:58.768Z,3.86
2023-12-23T13:55:05.824Z,3.85
2023-12-23T13:58:12.613Z,3.86
2023-12-23T14:01:19.513Z,3.89
2023-12-23T14:04:28.114Z,3.89
2023-12-23T14:07:35.546Z,3.96
2023-12-23T14:10:43.255Z,4.00
2023-12-23T14:13:51.974Z,4.04
2023-12-23T14:16:58.847Z,4.06
2023-12-23T14:20:06.486Z,4.07
2023-12-23T14:23:15.612Z,4.08
2023-12-23T14:26:22.477Z,4.12
2023-12-23T14:29:30.733Z,4.14
2023-12-23T14:32:39.314Z,4.16
2023-12-23T14:35:47.106Z,4.19
2023-12-23T14:38:53.840Z,4.19
2023-12-23T14:42:01.337Z,4.21
2023-12-23T14:45:09.582Z,4.24
2023-12-23T14:48:17.535Z,4.25
2023-12-23T14:51:24.286Z,4.25
2023-12-23T14:54:33.327Z,4.25
2023-12-23T14:57:40.105Z,4.26
2023-12-23T15:00:47.755Z,4.28
2023-12-23T15:03:56.643Z,4.28
2023-12-23T15:07:04.107Z,4.32
2023-12-23T15:10:11.024Z,4.32
2023-12-23T15:13:20.698Z,4.33
2023-12-23T15:16:28.417Z,4.33
2023-12-23T15:19:35.475Z,4.34
2023-12-23T15:22:43.004Z,4.34
2023-12-23T15:25:51.611Z,4.34
2023-12-23T15:28:58.422Z,4.33
2023-12-23T15:32:05.429Z,4.34
2023-12-23T15:35:14.019Z,4.37
2023-12-23T15:38:21.231Z,4.37
2023-12-23T15:41:30.296Z,4.37
2023-12-23T15:44:41.841Z,4.40
2023-12-23T15:47:49.196Z,4.42
2023-12-23T15:50:56.460Z,4.43
2023-12-23T15:54:06.190Z,4.44
2023-12-23T15:57:13.945Z,4.46
2023-12-23T16:00:21.628Z,4.50
2023-12-23T16:03:30.132Z,4.51
2023-12-23T16:06:38.177Z,4.52
2023-12-23T16:09:46.753Z,4.54
2023-12-23T16:12:53.808Z,4.55
2023-12-23T16:16:03.058Z,4.57
2023-12-23T16:19:10.440Z,4.59
2023-12-23T16:22:17.314Z,4.61
2023-12-23T16:25:28.173Z,4.59
2023-12-23T16:28:36.155Z,4.62
2023-12-23T16:31:43.250Z,4.61
2023-12-23T16:34:53.188Z,4.64
2023-12-23T16:38:00.243Z,4.67
2023-12-23T16:41:07.734Z,4.69
2023-12-23T16:44:16.356Z,4.69
2023-12-23T16:47:24.593Z,4.70
2023-12-23T16:50:32.275Z,4.72
2023-12-23T16:53:39.475Z,4.73
2023-12-23T16:56:48.671Z,4.72
2023-12-23T16:59:56.125Z,4.73
2023-12-23T17:03:06.838Z,4.75
2023-12-23T17:06:15.438Z,4.73
2023-12-23T17:09:22.565Z,4.75
2023-12-23T17:12:30.471Z,4.75
2023-12-23T17:15:39.013Z,4.76
2023-12-23T17:18:45.956Z,4.79
2023-12-23T17:21:53.201Z,4.79
2023-12-23T17:25:02.284Z,4.80
2023-12-23T17:28:12.200Z,4.80
2023-12-23T17:31:10.669Z,4.83
2023-12-23T17:34:19.148Z,4.83
2023-12-23T17:37:28.280Z,4.83
2023-12-23T17:40:36.211Z,4.84
2023-12-23T17:43:43.540Z,4.86
2023-12-23T17:46:52.115Z,4.86
2023-12-23T17:50:00.743Z,4.86
2023-12-23T17:53:07.683Z,4.89
2023-12-23T17:56:17.015Z,4.88
2023-12-23T17:59:24.509Z,4.89
2023-12-23T18:02:33.649Z,4.91
2023-12-23T18:05:42.284Z,4.91
2023-12-23T18:08:49.916Z,4.91
2023-12-23T18:11:56.790Z,4.92
2023-12-23T18:15:04.806Z,4.94
2023-12-23T18:18:13.590Z,4.94
2023-12-23T18:21:20.639Z,4.96
2023-12-23T18:24:28.640Z,4.96
2023-12-23T18:27:37.682Z,4.98
2023-12-23T18:30:45.085Z,4.99
2023-12-23T18:33:53.988Z,5.01
2023-12-23T18:37:02.685Z,5.02
2023-12-23T18:40:11.744Z,5.02
2023-12-23T18:43:19.364Z,5.04
2023-12-23T18:46:20.924Z,5.07
2023-12-23T18:49:27.807Z,5.07
2023-12-23T18:52:35.251Z,5.10
2023-12-23T18:55:42.149Z,5.12
2023-12-23T18:58:51.348Z,5.13
2023-12-23T19:01:58.611Z,5.14
2023-12-23T19:05:05.860Z,5.17
2023-12-23T19:08:18.483Z,5.20
2023-12-23T19:11:17.259Z,5.20
2023-12-23T19:14:24.971Z,5.23
2023-12-23T19:17:33.706Z,5.25
2023-12-23T19:20:41.754Z,5.28
2023-12-23T19:23:48.767Z,5.27
2023-12-23T19:26:56.960Z,5.28
2023-12-23T19:30:04.127Z,5.25
2023-12-23T19:33:11.542Z,5.30
2023-12-23T19:36:19.047Z,5.32
2023-12-23T19:39:27.450Z,5.31
2023-12-23T19:42:34.307Z,5.31
2023-12-23T19:45:41.777Z,5.32
2023-12-23T19:48:51.134Z,5.32
2023-12-23T19:51:58.264Z,5.32
2023-12-23T19:55:06.618Z,5.32
2023-12-23T19:58:14.853Z,5.35
2023-12-23T20:01:22.510Z,5.35
2023-12-23T20:04:29.960Z,5.35
2023-12-23T20:07:38.701Z,5.34
2023-12-23T20:11:25.803Z,5.34
2023-12-23T20:14:34.143Z,5.31
2023-12-23T20:17:43.777Z,5.32
2023-12-23T20:20:50.942Z,5.31
2023-12-23T20:23:57.841Z,5.35
2023-12-23T20:27:07.382Z,5.37
2023-12-23T20:30:14.721Z,5.40
2023-12-23T20:33:21.458Z,5.38
2023-12-23T20:36:28.905Z,5.38
2023-12-23T20:39:37.847Z,5.38
2023-12-23T20:42:45.901Z,5.34
2023-12-23T20:45:53.537Z,5.31
2023-12-23T20:49:02.768Z,5.32
2023-12-23T20:52:09.912Z,5.35
2023-12-23T20:55:16.806Z,5.38
2023-12-23T20:58:26.677Z,5.41
2023-12-23T21:01:34.009Z,5.45
2023-12-23T21:04:41.274Z,5.48
2023-12-23T21:07:51.080Z,5.48
2023-12-23T21:10:57.922Z,5.48
2023-12-23T21:14:05.753Z,5.49
2023-12-23T21:17:13.461Z,5.50
2023-12-23T21:20:21.975Z,5.53
2023-12-23T21:23:32.834Z,5.53
2023-12-23T21:26:40.539Z,5.53
2023-12-23T21:29:49.792Z,5.52
2023-12-23T21:32:57.897Z,5.52
2023-12-23T21:36:06.052Z,5.57
2023-12-23T21:39:15.492Z,5.68
2023-12-23T21:42:23.222Z,5.89
2023-12-23T21:45:30.499Z,6.26
2023-12-23T21:48:40.313Z,6.59
2023-12-23T21:51:47.696Z,6.95
2023-12-23T21:54:55.208Z,7.23
2023-12-23T21:58:02.986Z,7.53
2023-12-23T22:01:12.170Z,7.67
2023-12-23T22:04:19.239Z,7.74
2023-12-23T22:07:26.989Z,7.78
2023-12-23T22:10:35.847Z,7.82
2023-12-23T22:13:43.874Z,7.89
2023-12-23T22:16:51.001Z,7.93
2023-12-23T22:20:00.291Z,7.94
2023-12-23T22:23:07.212Z,7.96
2023-12-23T22:26:14.779Z,8.02
2023-12-23T22:29:24.457Z,8.00
2023-12-23T22:32:31.995Z,8.04
2023-12-23T22:35:39.831Z,8.08
2023-12-23T22:38:47.653Z,8.11
2023-12-23T22:41:56.861Z,8.11
2023-12-23T22:45:04.109Z,8.12
2023-12-23T22:48:12.605Z,8.12
2023-12-23T22:51:21.612Z,8.15
2023-12-23T22:54:29.096Z,8.15
2023-12-23T22:57:36.437Z,8.14
2023-12-23T23:00:45.530Z,8.15
2023-12-23T23:03:53.226Z,8.18
2023-12-23T23:07:00.717Z,8.21
2023-12-23T23:10:08.995Z,8.20
2023-12-23T23:13:16.611Z,8.18
2023-12-23T23:16:24.709Z,8.17
2023-12-23T23:19:33.503Z,8.17
2023-12-23T23:22:41.648Z,8.18
2023-12-23T23:25:48.722Z,8.20
2023-12-23T23:28:56.465Z,8.25
2023-12-23T23:32:05.584Z,8.21
2023-12-23T23:35:13.021Z,8.22
2023-12-23T23:38:20.277Z,8.25
2023-12-23T23:41:29.887Z,8.26
2023-12-23T23:44:36.776Z,8.25
2023-12-23T23:47:44.649Z,8.28
2023-12-23T23:50:53.372Z,8.26
2023-12-23T23:54:00.809Z,8.28
2023-12-23T23:57:08.723Z,8.28
